^^
Your Local Weather - Clay, NY Station Historical Data
Daily Summary for March 30, 2017 Units:  English    Metric   Both
« Previous Day
Next Day »
Daily Weekly Monthly Yearly Custom
  High: Low: Average:
Temperature: 43.8 °F 25.1 °F 35.2 °F
Dew Point: 33.3 °F 19.1 °F 24.8 °F
Humidity: 92% 38% 69%
Wind Speed: 5.0mph 0.0mph 1.7mph
Wind Gust: 11.0mph - -
Wind- - East
Pressure: 30.29 in 30.05 in -
Precipitation: 0.22 in    
Historical Graphs
 
 
Tabular Data for March 30, 2017
Time Temperature Dew Point Pressure Wind Wind Speed Wind Gust Humidity Rainfall Rate (Hourly) solar
00:02 29.2 °F 25.0 °F 30.26 in Calm     84% 0.00 in 0 W/m2
00:08 29.0 °F 24.8 °F 30.25 in Calm     84% 0.00 in 0 W/m2
00:14 28.7 °F 24.5 °F 30.25 in Calm     84% 0.00 in 0 W/m2
00:20 28.5 °F 24.3 °F 30.25 in Calm     84% 0.00 in 0 W/m2
00:26 28.3 °F 24.1 °F 30.25 in Calm     84% 0.00 in 0 W/m2
00:32 28.2 °F 24.0 °F 30.25 in Calm     84% 0.00 in 0 W/m2
00:38 28.1 °F 24.2 °F 30.25 in Calm     85% 0.00 in 0 W/m2
00:44 28.0 °F 24.1 °F 30.25 in Calm     85% 0.00 in 0 W/m2
00:50 27.9 °F 24.3 °F 30.25 in Calm     86% 0.00 in 0 W/m2
00:56 27.7 °F 23.8 °F 30.25 in Calm     85% 0.00 in 0 W/m2
01:02 27.5 °F 23.9 °F 30.24 in Calm     86% 0.00 in 0 W/m2
01:08 27.3 °F 23.7 °F 30.24 in Calm     86% 0.00 in 0 W/m2
01:14 27.2 °F 23.6 °F 30.24 in Calm     86% 0.00 in 0 W/m2
01:20 27.2 °F 23.6 °F 30.24 in Calm     86% 0.00 in 0 W/m2
01:26 27.1 °F 23.5 °F 30.24 in Calm   1.0 mph 86% 0.00 in 0 W/m2
01:32 27.0 °F 23.4 °F 30.24 in Calm     86% 0.00 in 0 W/m2
01:38 27.0 °F 23.4 °F 30.24 in Calm     86% 0.00 in 0 W/m2
01:46 26.9 °F 23.5 °F 30.24 in Calm     87% 0.00 in 0 W/m2
01:52 26.8 °F 23.4 °F 30.24 in Calm     87% 0.00 in 0 W/m2
01:58 26.9 °F 23.5 °F 30.24 in Calm     87% 0.00 in 0 W/m2
02:04 26.9 °F 23.5 °F 30.24 in Calm     87% 0.00 in 0 W/m2
02:10 26.8 °F 23.4 °F 30.24 in Calm     87% 0.00 in 0 W/m2
02:16 26.9 °F 23.5 °F 30.25 in Calm     87% 0.00 in 0 W/m2
02:22 26.8 °F 23.7 °F 30.25 in Calm     88% 0.00 in 0 W/m2
02:28 26.7 °F 23.6 °F 30.24 in Calm     88% 0.00 in 0 W/m2
02:34 26.8 °F 23.7 °F 30.24 in Calm     88% 0.00 in 0 W/m2
02:40 26.8 °F 23.7 °F 30.25 in Calm     88% 0.00 in 0 W/m2
02:46 26.7 °F 23.6 °F 30.25 in Calm     88% 0.00 in 0 W/m2
02:52 26.6 °F 23.5 °F 30.25 in Calm     88% 0.00 in 0 W/m2
02:58 26.4 °F 23.3 °F 30.25 in Calm     88% 0.00 in 0 W/m2
03:04 26.5 °F 23.4 °F 30.25 in Calm     88% 0.00 in 0 W/m2
03:10 26.7 °F 23.6 °F 30.25 in Calm     88% 0.00 in 0 W/m2
03:16 26.7 °F 23.9 °F 30.25 in Calm     89% 0.00 in 0 W/m2
03:22 26.5 °F 23.7 °F 30.25 in Calm     89% 0.00 in 0 W/m2
03:28 26.4 °F 23.6 °F 30.25 in Calm     89% 0.00 in 0 W/m2
03:34 26.2 °F 23.4 °F 30.25 in Calm     89% 0.00 in 0 W/m2
03:40 26.5 °F 23.7 °F 30.25 in Calm     89% 0.00 in 0 W/m2
03:46 26.4 °F 23.6 °F 30.25 in Calm     89% 0.00 in 0 W/m2
03:52 26.2 °F 23.4 °F 30.26 in Calm     89% 0.00 in 0 W/m2
03:58 26.0 °F 23.2 °F 30.26 in Calm     89% 0.00 in 0 W/m2
04:04 25.8 °F 23.0 °F 30.26 in Calm     89% 0.00 in 0 W/m2
04:10 25.6 °F 22.8 °F 30.26 in Calm     89% 0.00 in 0 W/m2
04:16 25.4 °F 22.6 °F 30.26 in Calm     89% 0.00 in 0 W/m2
04:22 25.5 °F 22.7 °F 30.27 in Calm     89% 0.00 in 0 W/m2
04:28 25.4 °F 22.6 °F 30.27 in Calm     89% 0.00 in 0 W/m2
04:34 25.3 °F 22.5 °F 30.27 in Calm     89% 0.00 in 0 W/m2
04:42 25.1 °F 22.3 °F 30.27 in Calm     89% 0.00 in 0 W/m2
04:48 25.1 °F 22.3 °F 30.27 in Calm     89% 0.00 in 0 W/m2
04:54 25.1 °F 22.3 °F 30.27 in Calm     89% 0.00 in 0 W/m2
05:00 25.3 °F 22.5 °F 30.27 in Calm     89% 0.00 in 0 W/m2
05:06 25.2 °F 22.4 °F 30.28 in Calm     89% 0.00 in 0 W/m2
05:12 25.4 °F 22.6 °F 30.28 in Calm     89% 0.00 in 0 W/m2
05:18 25.6 °F 22.8 °F 30.28 in Calm     89% 0.00 in 0 W/m2
05:24 25.6 °F 22.8 °F 30.28 in Calm     89% 0.00 in 0 W/m2
05:30 25.5 °F 22.7 °F 30.28 in Calm     89% 0.00 in 0 W/m2
05:36 25.3 °F 22.5 °F 30.28 in Calm     89% 0.00 in 0 W/m2
05:42 25.2 °F 22.4 °F 30.28 in Calm     89% 0.00 in 0 W/m2
05:48 25.3 °F 22.5 °F 30.29 in Calm     89% 0.00 in 0 W/m2
05:54 25.4 °F 22.6 °F 30.29 in Calm     89% 0.00 in 0 W/m2
06:00 25.3 °F 22.5 °F 30.29 in Calm     89% 0.00 in 0 W/m2
06:06 25.5 °F 23.0 °F 30.29 in Calm     90% 0.00 in 0 W/m2
06:12 25.7 °F 23.2 °F 30.29 in Calm     90% 0.00 in 0 W/m2
06:18 25.7 °F 23.2 °F 30.28 in Calm     90% 0.00 in 0 W/m2
06:24 25.8 °F 23.3 °F 30.28 in Calm     90% 0.00 in 0 W/m2
06:30 25.9 °F 23.4 °F 30.29 in Calm     90% 0.00 in 0 W/m2
06:36 26.0 °F 23.5 °F 30.29 in Calm     90% 0.00 in 0 W/m2
06:42 26.3 °F 23.8 °F 30.29 in Calm     90% 0.00 in 0 W/m2
06:48 26.5 °F 24.0 °F 30.29 in Calm     90% 0.00 in 5 W/m2
06:54 26.7 °F 24.2 °F 30.29 in Calm     90% 0.00 in 7 W/m2
07:00 26.8 °F 24.3 °F 30.29 in Calm     90% 0.00 in 12 W/m2
07:06 26.9 °F 24.4 °F 30.29 in Calm     90% 0.00 in 18 W/m2
07:12 27.1 °F 24.6 °F 30.29 in Calm     90% 0.00 in 32 W/m2
07:18 27.1 °F 24.6 °F 30.29 in Calm     90% 0.00 in 47 W/m2
07:24 27.3 °F 24.8 °F 30.29 in Calm     90% 0.00 in 58 W/m2
07:30 27.7 °F 25.2 °F 30.28 in Calm     90% 0.00 in 53 W/m2
07:36 28.2 °F 25.6 °F 30.28 in Calm   1.0 mph 90% 0.00 in 54 W/m2
07:42 28.5 °F 25.9 °F 30.27 in Calm     90% 0.00 in 53 W/m2
07:48 28.6 °F 25.8 °F 30.28 in Calm     89% 0.00 in 58 W/m2
07:54 28.9 °F 25.8 °F 30.28 in Calm     88% 0.00 in 79 W/m2
08:00 29.3 °F 25.9 °F 30.28 in Calm   1.0 mph 87% 0.00 in 123 W/m2
08:06 30.0 °F 26.0 °F 30.28 in Calm   1.0 mph 85% 0.00 in 174 W/m2
08:12 30.9 °F 25.8 °F 30.27 in NE 1.0 mph 3.0 mph 81% 0.00 in 206 W/m2
08:18 31.5 °F 25.7 °F 30.27 in ENE 1.0 mph 4.0 mph 79% 0.00 in 192 W/m2
08:24 31.9 °F 25.5 °F 30.27 in NE 1.0 mph 4.0 mph 77% 0.00 in 183 W/m2
08:30 32.2 °F 25.5 °F 30.28 in ENE 1.0 mph 2.0 mph 76% 0.00 in 229 W/m2
08:36 32.6 °F 25.6 °F 30.27 in NNW 1.0 mph 2.0 mph 75% 0.00 in 163 W/m2
08:42 33.0 °F 25.6 °F 30.27 in NNW 1.0 mph 1.0 mph 74% 0.00 in 149 W/m2
08:48 33.2 °F 25.8 °F 30.27 in NNW 1.0 mph 2.0 mph 74% 0.00 in 149 W/m2
08:54 33.5 °F 25.8 °F 30.27 in North 1.0 mph 3.0 mph 73% 0.00 in 171 W/m2
09:00 33.6 °F 25.5 °F 30.27 in NNE 2.0 mph 2.0 mph 72% 0.00 in 193 W/m2
09:06 33.9 °F 25.5 °F 30.27 in NNE 2.0 mph 2.0 mph 71% 0.00 in 199 W/m2
09:12 34.1 °F 25.0 °F 30.27 in NNE 1.0 mph 2.0 mph 69% 0.00 in 193 W/m2
09:18 34.3 °F 25.2 °F 30.27 in NE 1.0 mph 3.0 mph 69% 0.00 in 185 W/m2
09:24 34.2 °F 24.4 °F 30.26 in ENE 2.0 mph 3.0 mph 67% 0.00 in 195 W/m2
09:30 34.4 °F 24.2 °F 30.27 in NE 2.0 mph 3.0 mph 66% 0.00 in 220 W/m2
09:36 35.1 °F 24.9 °F 30.26 in ENE 2.0 mph 3.0 mph 66% 0.00 in 353 W/m2
09:42 36.1 °F 24.7 °F 30.26 in NNE 3.0 mph 4.0 mph 63% 0.00 in 496 W/m2
09:48 36.4 °F 23.4 °F 30.26 in NE 3.0 mph 7.0 mph 59% 0.00 in 445 W/m2
09:54 36.3 °F 23.3 °F 30.26 in ENE 4.0 mph 5.0 mph 59% 0.00 in 341 W/m2
10:00 36.5 °F 23.5 °F 30.25 in East 3.0 mph 3.0 mph 59% 0.00 in 299 W/m2
10:06 37.0 °F 22.7 °F 30.25 in ENE 3.0 mph 6.0 mph 56% 0.00 in 341 W/m2
10:12 37.3 °F 23.4 °F 30.25 in NNE 3.0 mph 3.0 mph 57% 0.00 in 302 W/m2
10:18 37.1 °F 22.4 °F 30.25 in ESE 4.0 mph 9.0 mph 55% 0.00 in 274 W/m2
10:24 36.9 °F 21.8 °F 30.25 in ENE 4.0 mph 5.0 mph 54% 0.00 in 287 W/m2
10:30 37.0 °F 21.4 °F 30.25 in SE 4.0 mph 8.0 mph 53% 0.00 in 330 W/m2
10:36 37.5 °F 22.3 °F 30.25 in ENE 4.0 mph 8.0 mph 54% 0.00 in 359 W/m2
10:42 37.8 °F 21.3 °F 30.25 in ESE 4.0 mph 4.0 mph 51% 0.00 in 338 W/m2
10:48 37.9 °F 20.9 °F 30.24 in East 3.0 mph 5.0 mph 50% 0.00 in 420 W/m2
10:54 38.1 °F 20.1 °F 30.24 in ESE 4.0 mph 4.0 mph 48% 0.00 in 540 W/m2
11:00 38.7 °F 22.1 °F 30.23 in ESE 4.0 mph 4.0 mph 51% 0.00 in 840 W/m2
11:06 38.4 °F 19.9 °F 30.23 in East 5.0 mph 6.0 mph 47% 0.00 in 721 W/m2
11:12 39.7 °F 21.1 °F 30.23 in NE 5.0 mph 6.0 mph 47% 0.00 in 921 W/m2
11:18 39.9 °F 23.2 °F 30.22 in SE 4.0 mph 6.0 mph 51% 0.00 in 881 W/m2
11:24 40.5 °F 24.2 °F 30.21 in East 4.0 mph 6.0 mph 52% 0.00 in 700 W/m2
11:30 39.9 °F 24.1 °F 30.22 in SE 5.0 mph 10.0 mph 53% 0.00 in 610 W/m2
11:36 40.0 °F 21.9 °F 30.22 in SE 4.0 mph 10.0 mph 48% 0.00 in 621 W/m2
11:42 40.0 °F 20.9 °F 30.22 in ESE 4.0 mph 5.0 mph 46% 0.00 in 656 W/m2
11:48 40.3 °F 21.1 °F 30.21 in ESE 5.0 mph 7.0 mph 46% 0.00 in 707 W/m2
11:54 40.0 °F 21.9 °F 30.21 in SE 4.0 mph 7.0 mph 48% 0.00 in 659 W/m2
12:00 40.1 °F 22.0 °F 30.20 in ESE 5.0 mph 5.0 mph 48% 0.00 in 524 W/m2
12:06 40.5 °F 21.3 °F 30.20 in East 4.0 mph 6.0 mph 46% 0.00 in 517 W/m2
12:12 40.2 °F 21.0 °F 30.20 in NE 5.0 mph 5.0 mph 46% 0.00 in 510 W/m2
12:18 40.9 °F 24.6 °F 30.21 in NE 4.0 mph 5.0 mph 52% 0.00 in 664 W/m2
12:24 40.9 °F 20.1 °F 30.21 in East 4.0 mph 7.0 mph 43% 0.00 in 573 W/m2
12:30 41.3 °F 23.1 °F 30.20 in ENE 4.0 mph 5.0 mph 48% 0.00 in 512 W/m2
12:36 41.7 °F 21.9 °F 30.19 in ESE 4.0 mph 7.0 mph 45% 0.00 in 559 W/m2
12:42 41.7 °F 22.9 °F 30.19 in ENE 3.0 mph 4.0 mph 47% 0.00 in 645 W/m2
12:48 42.2 °F 22.9 °F 30.19 in ESE 4.0 mph 7.0 mph 46% 0.00 in 761 W/m2
12:54 42.2 °F 20.7 °F 30.19 in NE 5.0 mph 5.0 mph 42% 0.00 in 761 W/m2
13:00 42.9 °F 21.9 °F 30.18 in North 4.0 mph 4.0 mph 43% 0.00 in 666 W/m2
13:06 42.3 °F 20.8 °F 30.18 in SE 5.0 mph 10.0 mph 42% 0.00 in 603 W/m2
13:12 42.4 °F 22.0 °F 30.19 in ENE 4.0 mph 4.0 mph 44% 0.00 in 638 W/m2
13:18 42.6 °F 21.6 °F 30.18 in SE 3.0 mph 5.0 mph 43% 0.00 in 531 W/m2
13:24 42.7 °F 22.3 °F 30.18 in ENE 3.0 mph 7.0 mph 44% 0.00 in 517 W/m2
13:30 42.9 °F 22.5 °F 30.18 in East 4.0 mph 8.0 mph 44% 0.00 in 457 W/m2
13:36 42.7 °F 20.0 °F 30.18 in East 4.0 mph 8.0 mph 40% 0.00 in 436 W/m2
13:42 43.0 °F 19.1 °F 30.18 in ENE 3.0 mph 4.0 mph 38% 0.00 in 420 W/m2
13:48 43.7 °F 20.3 °F 30.17 in East 3.0 mph 6.0 mph 39% 0.00 in 362 W/m2
13:54 43.0 °F 20.3 °F 30.17 in East 3.0 mph 5.0 mph 40% 0.00 in 299 W/m2
14:00 43.1 °F 21.0 °F 30.17 in NE 3.0 mph 4.0 mph 41% 0.00 in 288 W/m2
14:06 43.0 °F 20.3 °F 30.17 in NNE 3.0 mph 4.0 mph 40% 0.00 in 301 W/m2
14:12 43.0 °F 20.9 °F 30.17 in ESE 2.0 mph 3.0 mph 41% 0.00 in 290 W/m2
14:14 43.1 °F 21.5 °F 30.17 in SE 2.0 mph 3.0 mph 42% 0.00 in 278 W/m2
14:20 43.3 °F 20.6 °F 30.17 in SE 3.0 mph 3.0 mph 40% 0.00 in 278 W/m2
14:26 43.3 °F 21.1 °F 30.17 in South 2.0 mph 3.0 mph 41% 0.00 in 274 W/m2
14:32 43.4 °F 20.7 °F 30.17 in ESE 2.0 mph 3.0 mph 40% 0.00 in 265 W/m2
14:38 43.2 °F 20.5 °F 30.17 in SE 2.0 mph 6.0 mph 40% 0.00 in 239 W/m2
14:44 43.4 °F 20.7 °F 30.16 in SE 2.0 mph 3.0 mph 40% 0.00 in 230 W/m2
14:50 43.3 °F 22.3 °F 30.16 in SE 2.0 mph 3.0 mph 43% 0.00 in 237 W/m2
14:56 43.4 °F 20.1 °F 30.15 in ENE 2.0 mph 3.0 mph 39% 0.00 in 237 W/m2
15:02 43.2 °F 19.9 °F 30.15 in ESE 2.0 mph 3.0 mph 39% 0.00 in 232 W/m2
15:08 43.6 °F 22.5 °F 30.13 in ENE 2.0 mph 3.0 mph 43% 0.00 in 211 W/m2
15:14 43.7 °F 22.1 °F 30.13 in NE 2.0 mph 3.0 mph 42% 0.00 in 188 W/m2
15:20 43.7 °F 22.6 °F 30.13 in SSE 2.0 mph 2.0 mph 43% 0.00 in 179 W/m2
15:26 43.5 °F 21.9 °F 30.13 in East 3.0 mph 3.0 mph 42% 0.00 in 183 W/m2
15:32 43.5 °F 21.9 °F 30.13 in SE 2.0 mph 3.0 mph 42% 0.00 in 172 W/m2
15:38 43.6 °F 24.7 °F 30.13 in SSE 1.0 mph 3.0 mph 47% 0.00 in 162 W/m2
15:44 43.8 °F 23.3 °F 30.12 in SE 1.0 mph 3.0 mph 44% 0.00 in 171 W/m2
15:50 43.7 °F 22.6 °F 30.12 in ESE 2.0 mph 2.0 mph 43% 0.00 in 163 W/m2
15:56 43.7 °F 22.6 °F 30.12 in ENE 3.0 mph 4.0 mph 43% 0.00 in 162 W/m2
16:02 43.7 °F 23.2 °F 30.11 in ENE 2.0 mph 3.0 mph 44% 0.00 in 160 W/m2
16:08 43.6 °F 23.6 °F 30.11 in East 3.0 mph 5.0 mph 45% 0.00 in 137 W/m2
16:14 43.5 °F 21.9 °F 30.11 in ENE 3.0 mph 3.0 mph 42% 0.00 in 135 W/m2
16:20 43.4 °F 21.8 °F 30.10 in East 3.0 mph 3.0 mph 42% 0.00 in 125 W/m2
16:26 43.4 °F 22.4 °F 30.10 in East 3.0 mph 5.0 mph 43% 0.00 in 105 W/m2
16:32 43.3 °F 22.3 °F 30.09 in East 3.0 mph 6.0 mph 43% 0.00 in 98 W/m2
16:38 43.4 °F 21.8 °F 30.08 in NE 2.0 mph 6.0 mph 42% 0.00 in 84 W/m2
16:44 43.3 °F 21.7 °F 30.08 in NE 3.0 mph 3.0 mph 42% 0.00 in 86 W/m2
16:50 43.2 °F 22.2 °F 30.07 in ENE 3.0 mph 3.0 mph 43% 0.00 in 72 W/m2
16:56 43.2 °F 22.2 °F 30.07 in ENE 3.0 mph 5.0 mph 43% 0.00 in 67 W/m2
17:02 43.2 °F 22.2 °F 30.07 in East 2.0 mph 5.0 mph 43% 0.00 in 63 W/m2
17:08 43.2 °F 21.6 °F 30.07 in ENE 3.0 mph 5.0 mph 42% 0.00 in 47 W/m2
17:14 43.2 °F 21.6 °F 30.07 in NE 3.0 mph 3.0 mph 42% 0.00 in 49 W/m2
17:20 43.1 °F 23.2 °F 30.07 in NE 2.0 mph 2.0 mph 45% 0.00 in 49 W/m2
17:26 43.1 °F 21.5 °F 30.07 in ENE 2.0 mph 4.0 mph 42% 0.00 in 46 W/m2
17:32 43.2 °F 22.7 °F 30.07 in ENE 2.0 mph 2.0 mph 44% 0.00 in 37 W/m2
17:38 43.2 °F 23.3 °F 30.07 in NE 1.0 mph 2.0 mph 45% 0.00 in 35 W/m2
17:44 43.1 °F 22.6 °F 30.07 in NE 1.0 mph 3.0 mph 44% 0.00 in 33 W/m2
17:50 43.1 °F 22.6 °F 30.07 in East 1.0 mph 1.0 mph 44% 0.00 in 25 W/m2
17:56 43.1 °F 23.2 °F 30.07 in NNE 2.0 mph 2.0 mph 45% 0.00 in 30 W/m2
18:02 43.1 °F 23.2 °F 30.06 in ENE 1.0 mph 3.0 mph 45% 0.00 in 21 W/m2
18:08 43.1 °F 23.7 °F 30.06 in ENE 1.0 mph 3.0 mph 46% 0.00 in 18 W/m2
18:14 43.1 °F 23.7 °F 30.05 in ENE 1.0 mph 1.0 mph 46% 0.00 in 16 W/m2
18:20 43.0 °F 23.6 °F 30.05 in Calm     46% 0.00 in 18 W/m2
18:26 43.1 °F 24.7 °F 30.05 in Calm   2.0 mph 48% 0.00 in 18 W/m2
18:32 43.3 °F 22.8 °F 30.05 in SE 1.0 mph 3.0 mph 44% 0.00 in 16 W/m2
18:38 43.4 °F 22.9 °F 30.05 in East 2.0 mph 3.0 mph 44% 0.00 in 14 W/m2
18:44 43.4 °F 22.9 °F 30.05 in SE 2.0 mph 4.0 mph 44% 0.00 in 9 W/m2
18:50 43.3 °F 23.4 °F 30.05 in ESE 2.0 mph 3.0 mph 45% 0.00 in 5 W/m2
18:56 42.9 °F 26.0 °F 30.06 in SE 4.0 mph 11.0 mph 51% 0.00 in 5 W/m2
19:02 42.8 °F 26.4 °F 30.06 in SSE 5.0 mph 5.0 mph 52% 0.00 in 0 W/m2
19:08 42.5 °F 27.5 °F 30.06 in SE 4.0 mph 5.0 mph 55% 0.00 in 0 W/m2
19:14 42.4 °F 27.8 °F 30.07 in SE 3.0 mph 5.0 mph 56% 0.00 in 0 W/m2
19:20 42.4 °F 28.2 °F 30.07 in SE 4.0 mph 4.0 mph 57% 0.00 in 0 W/m2
19:26 42.2 °F 27.6 °F 30.07 in ENE 2.0 mph 4.0 mph 56% 0.00 in 0 W/m2
19:32 42.3 °F 27.7 °F 30.08 in ENE 2.0 mph 2.0 mph 56% 0.00 in 0 W/m2
19:38 41.9 °F 29.0 °F 30.08 in SSE 1.0 mph 3.0 mph 60% 0.00 in 0 W/m2
19:44 41.5 °F 29.8 °F 30.08 in East 3.0 mph 5.0 mph 63% 0.00 in 0 W/m2
19:50 40.8 °F 31.4 °F 30.09 in East 3.0 mph 3.0 mph 69% 0.00 in 0 W/m2
19:56 40.0 °F 31.7 °F 30.10 in East 2.0 mph 3.0 mph 72% 0.00 in 0 W/m2
20:02 39.2 °F 31.6 °F 30.09 in ENE 2.0 mph 2.0 mph 74% 0.00 in 0 W/m2
20:08 38.7 °F 31.8 °F 30.08 in ESE 2.0 mph 2.0 mph 76% 0.06 in 0 W/m2
20:14 38.4 °F 32.5 °F 30.08 in ENE 2.0 mph 2.0 mph 79% 0.06 in 0 W/m2
20:20 38.3 °F 32.7 °F 30.08 in East 1.0 mph 2.0 mph 80% 0.06 in 0 W/m2
20:26 38.2 °F 32.6 °F 30.08 in East 2.0 mph 5.0 mph 80% 0.05 in 0 W/m2
20:32 38.2 °F 32.9 °F 30.08 in East 3.0 mph 3.0 mph 81% 0.00 in 0 W/m2
20:38 38.0 °F 33.0 °F 30.07 in East 2.0 mph 3.0 mph 82% 0.00 in 0 W/m2
20:44 37.8 °F 33.1 °F 30.07 in ESE 2.0 mph 2.0 mph 83% 0.00 in 0 W/m2
20:50 37.7 °F 33.0 °F 30.07 in SE 2.0 mph 2.0 mph 83% 0.00 in 0 W/m2
20:56 37.6 °F 33.2 °F 30.06 in East 2.0 mph 3.0 mph 84% 0.00 in 0 W/m2
21:02 37.5 °F 33.1 °F 30.05 in East 1.0 mph 5.0 mph 84% 0.00 in 0 W/m2
21:08 37.4 °F 33.3 °F 30.06 in ESE 1.0 mph 5.0 mph 85% 0.00 in 0 W/m2
21:14 37.3 °F 33.2 °F 30.07 in SE 2.0 mph 3.0 mph 85% 0.00 in 0 W/m2
21:20 37.2 °F 33.1 °F 30.08 in SE 3.0 mph 3.0 mph 85% 0.00 in 0 W/m2
21:26 37.2 °F 33.1 °F 30.09 in SE 3.0 mph 3.0 mph 85% 0.00 in 0 W/m2
21:32 37.1 °F 33.0 °F 30.10 in SSE 1.0 mph 2.0 mph 85% 0.00 in 0 W/m2
21:38 37.0 °F 32.9 °F 30.10 in SE 2.0 mph 2.0 mph 85% 0.00 in 0 W/m2
21:44 36.9 °F 33.1 °F 30.10 in SE 1.0 mph 2.0 mph 86% 0.08 in 0 W/m2
21:50 36.7 °F 33.2 °F 30.10 in NE 1.0 mph 1.0 mph 87% 0.13 in 0 W/m2
21:56 36.5 °F 33.0 °F 30.10 in NE 2.0 mph 3.0 mph 87% 0.10 in 0 W/m2
22:02 36.4 °F 33.2 °F 30.10 in NE 1.0 mph 2.0 mph 88% 0.06 in 0 W/m2
22:08 36.2 °F 33.0 °F 30.10 in ENE 2.0 mph 3.0 mph 88% 0.10 in 0 W/m2
22:14 36.0 °F 32.8 °F 30.10 in NE 2.0 mph 3.0 mph 88% 0.08 in 0 W/m2
22:20 35.8 °F 32.6 °F 30.09 in ENE 3.0 mph 5.0 mph 88% 0.06 in 0 W/m2
22:26 35.7 °F 32.8 °F 30.07 in ENE 3.0 mph 5.0 mph 89% 0.11 in 0 W/m2
22:32 35.4 °F 32.5 °F 30.07 in ENE 3.0 mph 4.0 mph 89% 0.15 in 0 W/m2
22:38 35.3 °F 32.4 °F 30.08 in ENE 3.0 mph 4.0 mph 89% 0.10 in 0 W/m2
22:44 35.1 °F 32.2 °F 30.06 in ENE 3.0 mph 8.0 mph 89% 0.12 in 0 W/m2
22:50 34.8 °F 32.2 °F 30.05 in ENE 4.0 mph 10.0 mph 90% 0.14 in 0 W/m2
22:56 34.4 °F 31.8 °F 30.05 in ENE 5.0 mph 10.0 mph 90% 0.10 in 0 W/m2
23:02 34.0 °F 31.4 °F 30.07 in ENE 4.0 mph 5.0 mph 90% 0.11 in 0 W/m2
23:08 33.6 °F 31.0 °F 30.08 in NNE 2.0 mph 5.0 mph 90% 0.10 in 0 W/m2
23:14 33.5 °F 30.9 °F 30.08 in NE 2.0 mph 2.0 mph 90% 0.05 in 0 W/m2
23:20 33.2 °F 30.6 °F 30.09 in NNE 2.0 mph 2.0 mph 90% 0.00 in 0 W/m2
23:26 32.9 °F 30.3 °F 30.10 in NNE 3.0 mph 6.0 mph 90% 0.00 in 0 W/m2
23:32 32.6 °F 30.3 °F 30.08 in ENE 3.0 mph 5.0 mph 91% 0.00 in 0 W/m2
23:38 32.4 °F 30.1 °F 30.07 in East 3.0 mph 5.0 mph 91% 0.00 in 0 W/m2
23:44 32.4 °F 30.1 °F 30.07 in ENE 3.0 mph 5.0 mph 91% 0.00 in 0 W/m2
23:50 32.4 °F 30.1 °F 30.07 in East 3.0 mph 3.0 mph 91% 0.00 in 0 W/m2
23:56 32.4 °F 30.3 °F 30.07 in ENE 4.0 mph 8.0 mph 92% 0.00 in 0 W/m2
Country Meadow, Clay, NY, USA
Compliments of Weather Underground - 2 mb